createdAt,value
2023-01-15T00:02:16.645Z,19.08
2023-01-15T00:04:43.841Z,16.92
2023-01-15T00:07:11.014Z,17.77
2023-01-15T00:09:38.097Z,18.98
2023-01-15T00:12:05.334Z,18.65
2023-01-15T00:14:32.467Z,17.85
2023-01-15T00:16:59.549Z,18.13
2023-01-15T00:19:26.656Z,18.88
2023-01-15T00:21:54.331Z,17.73
2023-01-15T00:24:40.280Z,18.05
2023-01-15T00:27:26.279Z,17.55
2023-01-15T00:29:53.369Z,18.42
2023-01-15T00:32:20.442Z,17.98
2023-01-15T00:34:47.621Z,18.98
2023-01-15T00:37:14.687Z,19.50
2023-01-15T00:39:41.848Z,18.60
2023-01-15T00:42:09.924Z,18.48
2023-01-15T00:44:37.039Z,18.23
2023-01-15T00:47:04.438Z,18.65
2023-01-15T00:49:31.597Z,19.10
2023-01-15T00:51:58.664Z,19.20
2023-01-15T00:54:25.839Z,18.65
2023-01-15T00:56:53.073Z,16.77
2023-01-15T00:59:20.133Z,17.88
2023-01-15T01:01:47.283Z,18.83
2023-01-15T01:04:14.478Z,19.17
2023-01-15T01:06:41.585Z,19.63
2023-01-15T01:09:08.688Z,17.50
2023-01-15T01:11:36.858Z,19.42
2023-01-15T01:14:03.992Z,18.95
2023-01-15T01:16:33.662Z,19.80
2023-01-15T01:19:03.594Z,19.27
2023-01-15T01:21:31.174Z,20.95
2023-01-15T01:24:02.011Z,17.58
2023-01-15T01:26:30.036Z,18.67
2023-01-15T01:28:57.749Z,17.85
2023-01-15T01:31:25.175Z,19.25
2023-01-15T01:33:53.769Z,18.55
2023-01-15T01:36:21.555Z,19.73
2023-01-15T01:38:52.359Z,20.17
2023-01-15T01:41:19.807Z,18.70
2023-01-15T01:43:57.938Z,17.92
2023-01-15T01:46:25.912Z,18.50
2023-01-15T01:48:55.169Z,18.98
2023-01-15T01:51:24.601Z,16.90
2023-01-15T01:53:51.737Z,17.92
2023-01-15T01:56:19.301Z,18.60
2023-01-15T01:58:47.621Z,19.52
2023-01-15T02:01:14.969Z,20.65
2023-01-15T02:03:42.269Z,19.25
2023-01-15T02:06:09.913Z,19.67
2023-01-15T02:08:39.629Z,20.25
2023-01-15T02:11:07.695Z,17.98
2023-01-15T02:13:39.489Z,21.75
2023-01-15T02:16:25.148Z,22.27
2023-01-15T02:18:57.131Z,20.50
2023-01-15T02:21:33.468Z,22.27
2023-01-15T02:24:08.306Z,21.67
2023-01-15T02:26:53.791Z,22.35
2023-01-15T02:29:27.258Z,23.20
2023-01-15T02:31:54.421Z,23.67
2023-01-15T02:34:24.478Z,21.80
2023-01-15T02:36:53.920Z,24.85
2023-01-15T02:39:22.082Z,21.30
2023-01-15T02:41:54.251Z,23.05
2023-01-15T02:44:22.937Z,22.25
2023-01-15T02:46:50.834Z,20.35
2023-01-15T02:49:20.629Z,21.95
2023-01-15T02:51:52.164Z,19.10
2023-01-15T02:54:20.582Z,19.83
2023-01-15T02:56:49.258Z,21.30
2023-01-15T02:59:19.602Z,19.85
2023-01-15T03:01:58.646Z,20.85
2023-01-15T03:04:31.208Z,18.23
2023-01-15T03:06:58.332Z,20.15
2023-01-15T03:09:25.760Z,18.77
2023-01-15T03:11:58.966Z,16.30
2023-01-15T03:14:46.296Z,17.55
2023-01-15T03:17:19.966Z,17.83
2023-01-15T03:20:13.232Z,16.98
2023-01-15T03:22:42.095Z,17.00
2023-01-15T03:25:12.007Z,16.80
2023-01-15T03:27:39.222Z,17.33
2023-01-15T03:30:08.561Z,17.05
2023-01-15T03:32:36.158Z,17.58
2023-01-15T03:35:04.257Z,17.48
2023-01-15T03:37:32.042Z,16.73
2023-01-15T03:39:59.566Z,18.35
2023-01-15T03:42:26.640Z,16.92
2023-01-15T03:45:16.807Z,16.55
2023-01-15T03:47:53.103Z,18.13
2023-01-15T03:50:28.320Z,17.80
2023-01-15T03:53:01.386Z,18.17
2023-01-15T03:55:28.523Z,19.98
2023-01-15T03:57:58.647Z,21.52
2023-01-15T04:00:28.530Z,19.30
2023-01-15T04:02:56.915Z,20.27
2023-01-15T04:05:24.869Z,19.95
2023-01-15T04:07:52.443Z,19.42
2023-01-15T04:10:19.624Z,19.33
2023-01-15T04:12:47.723Z,16.67
2023-01-15T04:15:14.927Z,18.10
2023-01-15T04:17:42.002Z,17.50
2023-01-15T04:20:09.549Z,19.48
2023-01-15T04:22:36.687Z,19.02
2023-01-15T04:25:04.473Z,18.55
2023-01-15T04:27:31.908Z,18.27
2023-01-15T04:29:59.077Z,20.13
2023-01-15T04:32:27.417Z,18.23
2023-01-15T04:34:54.519Z,18.45
2023-01-15T04:37:21.697Z,18.95
2023-01-15T04:39:48.797Z,19.90
2023-01-15T04:42:34.748Z,20.52
2023-01-15T04:45:01.846Z,20.48
2023-01-15T04:47:30.919Z,17.38
2023-01-15T04:49:58.084Z,20.55
2023-01-15T04:52:25.169Z,21.30
2023-01-15T04:54:52.290Z,21.63
2023-01-15T04:57:19.526Z,19.60
2023-01-15T04:59:46.595Z,19.20
2023-01-15T05:02:15.382Z,20.77
2023-01-15T05:04:42.886Z,21.80
2023-01-15T05:07:10.261Z,21.70
2023-01-15T05:09:37.421Z,21.20
2023-01-15T05:12:04.687Z,19.27
2023-01-15T05:14:31.826Z,19.48
2023-01-15T05:16:58.911Z,21.00
2023-01-15T05:19:26.293Z,21.60
2023-01-15T05:21:53.394Z,21.15
2023-01-15T05:24:20.505Z,24.92
2023-01-15T05:26:47.755Z,23.17
2023-01-15T05:29:14.903Z,23.63
2023-01-15T05:31:44.949Z,24.15
2023-01-15T05:34:12.586Z,22.75
2023-01-15T05:36:39.703Z,21.70
2023-01-15T05:39:07.189Z,23.45
2023-01-15T05:41:49.726Z,23.05
2023-01-15T05:44:21.725Z,21.98
2023-01-15T05:46:49.691Z,21.85
2023-01-15T05:49:18.780Z,24.38
2023-01-15T05:51:46.316Z,23.88
2023-01-15T05:54:15.149Z,25.08
2023-01-15T05:56:42.593Z,24.92
2023-01-15T05:59:10.070Z,24.45
2023-01-15T06:01:37.333Z,24.40
2023-01-15T06:04:05.849Z,26.10
2023-01-15T06:06:33.335Z,24.48
2023-01-15T06:09:00.806Z,22.38
2023-01-15T06:11:28.199Z,22.13
2023-01-15T06:13:55.282Z,22.45
2023-01-15T06:16:22.571Z,20.88
2023-01-15T06:18:49.818Z,19.95
2023-01-15T06:21:17.055Z,20.40
2023-01-15T06:23:44.494Z,18.38
2023-01-15T06:26:13.029Z,17.90
2023-01-15T06:28:40.332Z,19.08
2023-01-15T06:31:08.299Z,20.42
2023-01-15T06:33:35.455Z,19.80
2023-01-15T06:36:09.749Z,22.08
2023-01-15T06:38:36.827Z,18.10
2023-01-15T06:41:04.941Z,20.35
2023-01-15T06:43:50.693Z,19.30
2023-01-15T06:46:36.632Z,19.45
2023-01-15T06:49:03.839Z,19.30
2023-01-15T06:51:31.315Z,20.13
2023-01-15T06:53:58.545Z,21.55
2023-01-15T06:56:25.702Z,21.55
2023-01-15T06:58:52.880Z,17.77
2023-01-15T07:01:20.037Z,17.55
2023-01-15T07:03:47.380Z,17.33
2023-01-15T07:06:14.504Z,16.55
2023-01-15T07:08:41.607Z,15.98
2023-01-15T07:11:10.080Z,17.05
2023-01-15T07:13:37.527Z,14.48
2023-01-15T07:16:05.332Z,14.23
2023-01-15T07:18:33.783Z,13.48
2023-01-15T07:21:01.171Z,15.45
2023-01-15T07:23:28.729Z,13.93
2023-01-15T07:25:56.361Z,15.88
2023-01-15T07:28:24.626Z,16.63
2023-01-15T07:30:51.708Z,15.57
2023-01-15T07:33:18.882Z,14.95
2023-01-15T07:35:46.026Z,15.90
2023-01-15T07:38:13.122Z,15.15
2023-01-15T07:40:40.316Z,16.20
2023-01-15T07:43:26.099Z,14.95
2023-01-15T07:46:12.112Z,14.52
2023-01-15T07:48:58.097Z,13.88
2023-01-15T07:51:25.267Z,14.13
2023-01-15T07:53:52.339Z,16.17
2023-01-15T07:56:19.428Z,15.85
2023-01-15T07:58:50.246Z,16.33
2023-01-15T08:01:17.501Z,15.43
2023-01-15T08:03:44.683Z,15.27
2023-01-15T08:06:11.866Z,15.63
2023-01-15T08:08:38.980Z,15.82
2023-01-15T08:11:24.935Z,15.93
2023-01-15T08:14:27.630Z,16.48
2023-01-15T08:16:54.767Z,17.15
2023-01-15T08:19:21.925Z,16.23
2023-01-15T08:21:49.051Z,16.48
2023-01-15T08:24:16.179Z,17.50
2023-01-15T08:26:43.271Z,15.95
2023-01-15T08:29:10.389Z,15.85
2023-01-15T08:31:37.600Z,15.93
2023-01-15T08:34:04.682Z,13.95
2023-01-15T08:36:31.871Z,15.77
2023-01-15T08:38:59.012Z,16.27
2023-01-15T08:41:26.109Z,15.48
2023-01-15T08:43:53.222Z,14.95
2023-01-15T08:46:20.360Z,14.55
2023-01-15T08:48:48.311Z,15.57
2023-01-15T08:51:16.074Z,15.40
2023-01-15T08:53:43.216Z,13.50
2023-01-15T08:56:13.619Z,13.00
2023-01-15T08:58:40.741Z,14.43
2023-01-15T09:01:08.810Z,13.80
2023-01-15T09:03:36.739Z,15.35
2023-01-15T09:06:05.808Z,13.57
2023-01-15T09:08:32.979Z,14.07
2023-01-15T09:11:00.705Z,17.45
2023-01-15T09:13:28.575Z,13.65
2023-01-15T09:15:55.942Z,12.38
2023-01-15T09:18:23.046Z,13.02
2023-01-15T09:20:50.373Z,13.68
2023-01-15T09:23:17.520Z,13.57
2023-01-15T09:25:54.795Z,13.45
2023-01-15T09:28:21.938Z,11.38
2023-01-15T09:30:49.252Z,12.10
2023-01-15T09:33:16.481Z,11.73
2023-01-15T09:35:44.350Z,11.57
2023-01-15T09:38:15.253Z,11.02
2023-01-15T09:40:56.790Z,13.02
2023-01-15T09:46:02.504Z,11.93
2023-01-15T09:48:29.626Z,10.55
2023-01-15T09:50:57.026Z,11.00
2023-01-15T09:53:30.113Z,11.23
2023-01-15T09:55:58.670Z,11.88
2023-01-15T09:58:33.630Z,10.30
2023-01-15T10:01:00.805Z,10.30
2023-01-15T10:03:41.513Z,9.85
2023-01-15T10:06:08.579Z,10.55
2023-01-15T10:08:39.430Z,10.18
2023-01-15T10:11:20.245Z,10.35
2023-01-15T13:33:17.344Z,17.23
2023-01-15T13:35:49.042Z,18.75
2023-01-15T13:38:21.019Z,19.45
2023-01-15T13:40:53.047Z,21.00
2023-01-15T13:43:27.795Z,21.05
2023-01-15T13:45:55.323Z,21.73
2023-01-15T13:48:26.701Z,20.33
2023-01-15T13:53:24.016Z,17.70
2023-01-15T13:55:52.860Z,19.50
2023-01-15T13:58:25.457Z,19.35
2023-01-15T14:01:09.430Z,15.10
2023-01-15T14:03:38.387Z,16.25
2023-01-15T14:06:07.225Z,16.40
2023-01-15T14:08:44.464Z,14.77
2023-01-15T14:11:30.227Z,15.63
2023-01-15T14:14:16.252Z,16.40
2023-01-15T14:16:54.828Z,16.23
2023-01-15T14:19:34.077Z,15.63
2023-01-15T14:22:12.201Z,15.70
2023-01-15T14:24:48.642Z,16.80
2023-01-15T14:27:27.610Z,18.40
2023-01-15T14:30:09.762Z,17.25
2023-01-15T14:32:52.797Z,19.30
2023-01-15T14:35:21.454Z,20.67
2023-01-15T14:38:04.549Z,21.02
2023-01-15T14:40:34.513Z,19.35
2023-01-15T14:43:05.366Z,19.50
2023-01-15T14:45:37.758Z,20.45
2023-01-15T14:48:06.764Z,19.73
2023-01-15T14:50:42.299Z,19.75
2023-01-15T14:53:15.602Z,20.48
2023-01-15T14:55:50.155Z,19.63
2023-01-15T14:58:38.377Z,20.65
2023-01-15T15:01:13.436Z,19.30
2023-01-15T15:03:45.175Z,21.17
2023-01-15T15:06:12.601Z,20.05
2023-01-15T15:08:41.783Z,20.38
2023-01-15T15:11:34.724Z,18.40
2023-01-15T15:14:02.613Z,18.20
2023-01-15T15:16:31.753Z,20.17
2023-01-15T15:19:16.094Z,19.80
2023-01-15T15:21:46.113Z,21.92
2023-01-15T15:24:18.400Z,19.70
2023-01-15T15:26:45.568Z,23.40
2023-01-15T15:29:17.374Z,21.38
2023-01-15T15:31:48.154Z,22.13
2023-01-15T15:34:41.643Z,21.27
2023-01-15T15:37:19.272Z,21.00
2023-01-15T15:39:53.718Z,22.15
2023-01-15T15:42:45.123Z,20.30
2023-01-15T15:45:36.630Z,20.65
2023-01-15T15:48:32.856Z,18.05
2023-01-15T15:51:00.558Z,16.73
2023-01-15T15:53:27.710Z,16.88
2023-01-15T15:55:55.455Z,16.55
2023-01-15T15:58:28.761Z,16.60
2023-01-15T16:00:57.434Z,15.02
2023-01-15T16:03:25.955Z,14.32
2023-01-15T16:06:15.914Z,14.18
2023-01-15T16:08:52.291Z,14.45
2023-01-15T16:11:19.846Z,13.80
2023-01-15T16:13:49.046Z,12.88
2023-01-15T16:16:16.701Z,13.45
2023-01-15T16:18:45.633Z,13.85
2023-01-15T16:21:18.349Z,13.63
2023-01-15T16:23:55.878Z,13.77
2023-01-15T16:26:24.267Z,14.30
2023-01-15T16:28:56.039Z,12.95
2023-01-15T16:31:23.530Z,12.73
2023-01-15T16:33:58.166Z,12.70
2023-01-15T16:36:26.724Z,12.77
2023-01-15T16:38:54.415Z,13.40
2023-01-15T16:41:32.375Z,12.48
2023-01-15T16:44:00.956Z,12.52
2023-01-15T16:46:32.717Z,13.45
2023-01-15T16:49:18.278Z,14.88
2023-01-15T16:51:45.445Z,12.50
2023-01-15T16:54:30.705Z,12.98
2023-01-15T16:56:59.465Z,15.57
2023-01-15T16:59:26.550Z,14.82
2023-01-15T17:01:59.793Z,16.45
2023-01-15T17:04:41.185Z,15.13
2023-01-15T17:07:16.576Z,14.95
2023-01-15T17:09:44.744Z,16.05
2023-01-15T17:12:20.752Z,15.15
2023-01-15T17:14:47.868Z,17.95
2023-01-15T17:17:18.408Z,16.27
2023-01-15T17:19:45.588Z,16.05
2023-01-15T17:22:32.005Z,17.88
2023-01-15T17:25:01.119Z,15.65
2023-01-15T17:27:29.123Z,16.52
2023-01-15T17:29:56.600Z,17.60
2023-01-15T17:32:30.890Z,16.35
2023-01-15T17:34:58.012Z,17.52
2023-01-15T17:37:25.556Z,17.80
2023-01-15T17:39:52.716Z,18.08
2023-01-15T17:42:20.825Z,16.48
2023-01-15T17:44:47.908Z,15.13
2023-01-15T17:47:15.896Z,15.45
2023-01-15T17:49:43.002Z,14.25
2023-01-15T17:52:16.092Z,13.63
2023-01-15T17:55:01.790Z,13.40
2023-01-15T17:57:47.816Z,14.63
2023-01-15T18:00:33.976Z,14.15
2023-01-15T18:03:20.171Z,13.05
2023-01-15T18:05:49.031Z,14.38
2023-01-15T18:08:18.705Z,12.50
2023-01-15T18:10:46.128Z,13.43
2023-01-15T18:13:19.145Z,13.38
2023-01-15T18:15:46.423Z,13.18
2023-01-15T18:18:15.815Z,13.45
2023-01-15T18:20:42.979Z,13.95
2023-01-15T18:23:10.202Z,14.77
2023-01-15T18:25:39.347Z,14.10
2023-01-15T18:28:06.639Z,13.45
2023-01-15T18:30:34.452Z,13.85
2023-01-15T18:33:02.854Z,14.38
2023-01-15T18:35:31.507Z,13.55
2023-01-15T18:37:59.282Z,14.13
2023-01-15T18:40:34.503Z,14.73
2023-01-15T18:43:20.228Z,14.13
2023-01-15T18:46:21.997Z,13.93
2023-01-15T18:51:17.392Z,12.63
2023-01-15T18:53:44.564Z,12.65
2023-01-15T18:56:13.956Z,13.77
2023-01-15T18:58:42.458Z,14.30
2023-01-15T19:01:09.699Z,17.25
2023-01-15T19:03:36.919Z,17.23
2023-01-15T19:06:07.862Z,18.50
2023-01-15T19:08:34.952Z,16.15
2023-01-15T19:11:02.078Z,17.40
2023-01-15T19:13:29.147Z,18.85
2023-01-15T22:03:27.189Z,11.80
2023-01-15T22:05:54.313Z,11.48
2023-01-15T22:08:21.374Z,11.75
2023-01-15T22:10:49.891Z,12.18
2023-01-15T22:13:16.968Z,12.90
2023-01-15T22:15:44.067Z,11.60
2023-01-15T22:18:11.204Z,12.65
2023-01-15T22:20:38.282Z,12.38
2023-01-15T22:23:05.383Z,12.07
2023-01-15T22:25:32.642Z,12.77
2023-01-15T22:27:59.785Z,11.48
2023-01-15T22:30:26.896Z,12.25
2023-01-15T22:32:54.055Z,12.55
2023-01-15T22:35:22.558Z,11.93
2023-01-15T22:37:49.656Z,11.80
2023-01-15T22:40:16.819Z,10.57
2023-01-15T22:42:43.995Z,12.38
2023-01-15T22:45:11.431Z,12.70
2023-01-15T22:47:38.601Z,11.88
2023-01-15T22:50:05.883Z,12.73
2023-01-15T22:52:33.151Z,12.82
2023-01-15T22:55:00.328Z,13.30
2023-01-15T22:57:29.308Z,12.90
2023-01-15T22:59:56.505Z,12.25
2023-01-15T23:02:42.640Z,13.50
2023-01-15T23:05:10.287Z,13.60
2023-01-15T23:07:40.480Z,13.32
2023-01-15T23:10:09.021Z,13.15
2023-01-15T23:12:36.126Z,13.02
2023-01-15T23:15:03.232Z,13.70
2023-01-15T23:17:30.378Z,14.35
2023-01-15T23:19:57.467Z,12.75
2023-01-15T23:22:24.540Z,14.07
2023-01-15T23:24:51.704Z,13.90
2023-01-15T23:27:18.863Z,12.60
2023-01-15T23:29:45.915Z,13.65
2023-01-15T23:32:13.165Z,14.85
2023-01-15T23:34:40.275Z,13.43
2023-01-15T23:37:07.718Z,14.02
2023-01-15T23:39:35.040Z,13.65
2023-01-15T23:42:20.812Z,12.23
2023-01-15T23:45:06.821Z,13.68
2023-01-15T23:47:33.923Z,12.70
2023-01-15T23:50:01.045Z,13.88
2023-01-15T23:52:28.176Z,13.15
2023-01-15T23:54:55.242Z,13.15
2023-01-15T23:57:22.330Z,12.98
2023-01-15T23:59:49.524Z,12.35
